sensor_id;sensor_type;location;lat;lon;timestamp;temperature;humidity
67870;DHT22;54673;52.262;6.830;2023-05-15T00:01:36;22.90;49.60
67870;DHT22;54673;52.262;6.830;2023-05-15T00:04:02;22.80;49.50
67870;DHT22;54673;52.262;6.830;2023-05-15T00:06:28;22.80;49.50
67870;DHT22;54673;52.262;6.830;2023-05-15T00:08:54;22.80;49.50
67870;DHT22;54673;52.262;6.830;2023-05-15T00:11:19;22.80;49.60
67870;DHT22;54673;52.262;6.830;2023-05-15T00:13:48;22.80;49.50
67870;DHT22;54673;52.262;6.830;2023-05-15T00:16:14;22.80;49.40
67870;DHT22;54673;52.262;6.830;2023-05-15T00:18:39;22.80;49.40
67870;DHT22;54673;52.262;6.830;2023-05-15T00:21:05;22.80;49.50
67870;DHT22;54673;52.262;6.830;2023-05-15T00:23:30;22.80;49.40
67870;DHT22;54673;52.262;6.830;2023-05-15T00:25:56;22.80;49.40
67870;DHT22;54673;52.262;6.830;2023-05-15T00:28:21;22.80;49.40
67870;DHT22;54673;52.262;6.830;2023-05-15T00:30:47;22.80;49.50
67870;DHT22;54673;52.262;6.830;2023-05-15T00:33:13;22.80;49.40
67870;DHT22;54673;52.262;6.830;2023-05-15T00:35:38;22.80;49.40
67870;DHT22;54673;52.262;6.830;2023-05-15T00:38:04;22.80;49.40
67870;DHT22;54673;52.262;6.830;2023-05-15T00:40:30;22.80;49.40
67870;DHT22;54673;52.262;6.830;2023-05-15T00:42:57;22.80;49.40
67870;DHT22;54673;52.262;6.830;2023-05-15T00:45:24;22.90;49.40
67870;DHT22;54673;52.262;6.830;2023-05-15T00:47:51;22.80;49.40
67870;DHT22;54673;52.262;6.830;2023-05-15T00:50:18;22.80;49.40
67870;DHT22;54673;52.262;6.830;2023-05-15T00:52:44;22.80;49.30
67870;DHT22;54673;52.262;6.830;2023-05-15T00:55:10;22.80;49.40
67870;DHT22;54673;52.262;6.830;2023-05-15T00:57:36;22.80;50.20
67870;DHT22;54673;52.262;6.830;2023-05-15T01:00:03;22.80;49.30
67870;DHT22;54673;52.262;6.830;2023-05-15T01:02:37;22.80;49.30
67870;DHT22;54673;52.262;6.830;2023-05-15T01:05:03;22.80;49.30
67870;DHT22;54673;52.262;6.830;2023-05-15T01:07:33;22.80;49.20
67870;DHT22;54673;52.262;6.830;2023-05-15T01:10:02;22.80;49.30
67870;DHT22;54673;52.262;6.830;2023-05-15T01:12:30;22.80;49.30
67870;DHT22;54673;52.262;6.830;2023-05-15T01:14:56;22.80;49.30
67870;DHT22;54673;52.262;6.830;2023-05-15T01:17:22;22.80;49.30
67870;DHT22;54673;52.262;6.830;2023-05-15T01:19:49;22.80;49.30
67870;DHT22;54673;52.262;6.830;2023-05-15T01:22:51;22.80;49.30
67870;DHT22;54673;52.262;6.830;2023-05-15T01:25:55;22.80;49.30
67870;DHT22;54673;52.262;6.830;2023-05-15T01:28:30;22.80;49.30
67870;DHT22;54673;52.262;6.830;2023-05-15T01:31:00;22.80;49.30
67870;DHT22;54673;52.262;6.830;2023-05-15T01:33:34;22.00;49.70
67870;DHT22;54673;52.262;6.830;2023-05-15T01:36:25;22.70;49.20
67870;DHT22;54673;52.262;6.830;2023-05-15T01:38:57;22.80;49.20
67870;DHT22;54673;52.262;6.830;2023-05-15T01:41:44;22.70;49.20
67870;DHT22;54673;52.262;6.830;2023-05-15T01:44:16;22.70;49.30
67870;DHT22;54673;52.262;6.830;2023-05-15T01:46:44;22.80;49.20
67870;DHT22;54673;52.262;6.830;2023-05-15T01:49:12;22.70;49.10
67870;DHT22;54673;52.262;6.830;2023-05-15T01:51:38;22.80;49.20
67870;DHT22;54673;52.262;6.830;2023-05-15T01:54:06;22.70;49.20
67870;DHT22;54673;52.262;6.830;2023-05-15T01:56:34;22.80;49.10
67870;DHT22;54673;52.262;6.830;2023-05-15T01:59:01;22.70;49.00
67870;DHT22;54673;52.262;6.830;2023-05-15T02:01:28;22.70;49.00
67870;DHT22;54673;52.262;6.830;2023-05-15T02:03:56;22.80;49.10
67870;DHT22;54673;52.262;6.830;2023-05-15T02:06:23;22.70;49.00
67870;DHT22;54673;52.262;6.830;2023-05-15T02:08:50;22.70;49.10
67870;DHT22;54673;52.262;6.830;2023-05-15T02:11:17;22.70;49.00
67870;DHT22;54673;52.262;6.830;2023-05-15T02:13:43;22.70;49.00
67870;DHT22;54673;52.262;6.830;2023-05-15T02:16:09;22.70;49.00
67870;DHT22;54673;52.262;6.830;2023-05-15T02:18:35;22.70;49.00
67870;DHT22;54673;52.262;6.830;2023-05-15T02:21:01;22.70;48.90
67870;DHT22;54673;52.262;6.830;2023-05-15T02:23:27;22.70;48.90
67870;DHT22;54673;52.262;6.830;2023-05-15T02:32:02;22.70;48.90
67870;DHT22;54673;52.262;6.830;2023-05-15T02:34:51;22.70;48.90
67870;DHT22;54673;52.262;6.830;2023-05-15T02:37:25;22.70;48.80
67870;DHT22;54673;52.262;6.830;2023-05-15T02:39:54;22.70;48.90
67870;DHT22;54673;52.262;6.830;2023-05-15T02:42:22;22.70;48.90
67870;DHT22;54673;52.262;6.830;2023-05-15T02:44:48;22.70;48.90
67870;DHT22;54673;52.262;6.830;2023-05-15T02:47:16;22.70;48.90
67870;DHT22;54673;52.262;6.830;2023-05-15T02:49:43;22.70;48.90
67870;DHT22;54673;52.262;6.830;2023-05-15T02:52:09;22.70;48.80
67870;DHT22;54673;52.262;6.830;2023-05-15T02:54:35;22.70;48.80
67870;DHT22;54673;52.262;6.830;2023-05-15T02:57:00;22.70;48.80
67870;DHT22;54673;52.262;6.830;2023-05-15T02:59:26;22.60;48.70
67870;DHT22;54673;52.262;6.830;2023-05-15T03:01:51;22.70;48.80
67870;DHT22;54673;52.262;6.830;2023-05-15T03:04:17;22.70;48.70
67870;DHT22;54673;52.262;6.830;2023-05-15T03:06:43;22.70;48.70
67870;DHT22;54673;52.262;6.830;2023-05-15T03:09:08;22.70;48.70
67870;DHT22;54673;52.262;6.830;2023-05-15T03:11:34;22.60;48.60
67870;DHT22;54673;52.262;6.830;2023-05-15T03:13:59;22.70;48.60
67870;DHT22;54673;52.262;6.830;2023-05-15T03:16:27;22.70;48.70
67870;DHT22;54673;52.262;6.830;2023-05-15T03:18:53;22.70;48.70
67870;DHT22;54673;52.262;6.830;2023-05-15T03:21:19;22.60;48.50
67870;DHT22;54673;52.262;6.830;2023-05-15T03:23:44;22.70;48.60
67870;DHT22;54673;52.262;6.830;2023-05-15T03:26:10;22.70;48.50
67870;DHT22;54673;52.262;6.830;2023-05-15T03:28:36;22.60;48.50
67870;DHT22;54673;52.262;6.830;2023-05-15T03:31:02;22.60;48.50
67870;DHT22;54673;52.262;6.830;2023-05-15T03:33:29;22.60;48.50
67870;DHT22;54673;52.262;6.830;2023-05-15T03:35:55;22.60;48.50
67870;DHT22;54673;52.262;6.830;2023-05-15T03:38:21;22.60;48.50
67870;DHT22;54673;52.262;6.830;2023-05-15T03:40:46;22.60;47.60
67870;DHT22;54673;52.262;6.830;2023-05-15T03:43:12;22.60;48.50
67870;DHT22;54673;52.262;6.830;2023-05-15T03:45:38;22.60;48.40
67870;DHT22;54673;52.262;6.830;2023-05-15T03:48:04;22.60;48.40
67870;DHT22;54673;52.262;6.830;2023-05-15T03:50:29;22.60;48.40
67870;DHT22;54673;52.262;6.830;2023-05-15T03:52:55;22.60;48.40
67870;DHT22;54673;52.262;6.830;2023-05-15T03:55:21;22.60;48.40
67870;DHT22;54673;52.262;6.830;2023-05-15T03:57:46;22.60;48.40
67870;DHT22;54673;52.262;6.830;2023-05-15T04:00:12;22.60;48.40
67870;DHT22;54673;52.262;6.830;2023-05-15T04:02:38;22.60;48.30
67870;DHT22;54673;52.262;6.830;2023-05-15T04:05:05;22.60;48.40
67870;DHT22;54673;52.262;6.830;2023-05-15T04:07:35;22.60;48.40
67870;DHT22;54673;52.262;6.830;2023-05-15T04:10:01;22.60;48.40
67870;DHT22;54673;52.262;6.830;2023-05-15T04:12:28;22.60;48.40
67870;DHT22;54673;52.262;6.830;2023-05-15T04:14:58;22.60;48.40
67870;DHT22;54673;52.262;6.830;2023-05-15T04:17:24;22.50;48.30
67870;DHT22;54673;52.262;6.830;2023-05-15T04:19:49;22.60;48.30
67870;DHT22;54673;52.262;6.830;2023-05-15T04:22:15;22.60;48.20
67870;DHT22;54673;52.262;6.830;2023-05-15T04:24:40;22.60;48.30
67870;DHT22;54673;52.262;6.830;2023-05-15T04:27:06;22.60;48.20
67870;DHT22;54673;52.262;6.830;2023-05-15T04:29:31;22.50;48.20
67870;DHT22;54673;52.262;6.830;2023-05-15T04:31:57;22.60;48.20
67870;DHT22;54673;52.262;6.830;2023-05-15T04:34:23;22.50;48.10
67870;DHT22;54673;52.262;6.830;2023-05-15T04:36:49;22.50;48.20
67870;DHT22;54673;52.262;6.830;2023-05-15T04:39:15;22.50;48.20
67870;DHT22;54673;52.262;6.830;2023-05-15T04:41:41;22.60;48.20
67870;DHT22;54673;52.262;6.830;2023-05-15T04:44:06;22.50;48.20
67870;DHT22;54673;52.262;6.830;2023-05-15T04:46:32;22.50;48.10
67870;DHT22;54673;52.262;6.830;2023-05-15T04:48:59;22.50;48.10
67870;DHT22;54673;52.262;6.830;2023-05-15T04:51:24;22.50;48.10
67870;DHT22;54673;52.262;6.830;2023-05-15T04:53:50;22.50;48.10
67870;DHT22;54673;52.262;6.830;2023-05-15T04:56:16;22.50;48.20
67870;DHT22;54673;52.262;6.830;2023-05-15T04:58:41;22.50;48.20
67870;DHT22;54673;52.262;6.830;2023-05-15T05:01:07;22.50;48.20
67870;DHT22;54673;52.262;6.830;2023-05-15T05:03:32;22.50;48.10
67870;DHT22;54673;52.262;6.830;2023-05-15T05:05:58;22.50;48.10
67870;DHT22;54673;52.262;6.830;2023-05-15T05:08:23;22.50;48.20
67870;DHT22;54673;52.262;6.830;2023-05-15T05:10:54;22.50;48.20
67870;DHT22;54673;52.262;6.830;2023-05-15T05:13:20;22.60;48.20
67870;DHT22;54673;52.262;6.830;2023-05-15T05:15:46;22.50;48.10
67870;DHT22;54673;52.262;6.830;2023-05-15T05:18:11;22.50;48.10
67870;DHT22;54673;52.262;6.830;2023-05-15T05:20:37;22.50;48.10
67870;DHT22;54673;52.262;6.830;2023-05-15T05:23:02;22.50;48.10
67870;DHT22;54673;52.262;6.830;2023-05-15T05:25:28;22.50;48.10
67870;DHT22;54673;52.262;6.830;2023-05-15T05:27:53;22.50;48.00
67870;DHT22;54673;52.262;6.830;2023-05-15T05:30:19;22.50;48.10
67870;DHT22;54673;52.262;6.830;2023-05-15T05:32:46;22.50;48.10
67870;DHT22;54673;52.262;6.830;2023-05-15T05:35:12;22.50;48.00
67870;DHT22;54673;52.262;6.830;2023-05-15T05:37:38;22.50;48.00
67870;DHT22;54673;52.262;6.830;2023-05-15T05:40:04;22.50;48.00
67870;DHT22;54673;52.262;6.830;2023-05-15T05:42:31;22.50;48.10
67870;DHT22;54673;52.262;6.830;2023-05-15T05:44:56;22.50;48.00
67870;DHT22;54673;52.262;6.830;2023-05-15T05:47:22;22.50;48.10
67870;DHT22;54673;52.262;6.830;2023-05-15T05:49:47;22.50;48.10
67870;DHT22;54673;52.262;6.830;2023-05-15T05:52:13;22.50;48.00
67870;DHT22;54673;52.262;6.830;2023-05-15T05:54:40;22.50;48.00
67870;DHT22;54673;52.262;6.830;2023-05-15T05:57:06;22.50;48.00
67870;DHT22;54673;52.262;6.830;2023-05-15T05:59:31;22.50;47.90
67870;DHT22;54673;52.262;6.830;2023-05-15T06:01:57;22.50;47.90
67870;DHT22;54673;52.262;6.830;2023-05-15T06:04:23;22.50;47.90
67870;DHT22;54673;52.262;6.830;2023-05-15T06:06:48;23.00;48.20
67870;DHT22;54673;52.262;6.830;2023-05-15T06:09:14;22.50;47.80
67870;DHT22;54673;52.262;6.830;2023-05-15T06:11:39;22.50;47.80
67870;DHT22;54673;52.262;6.830;2023-05-15T06:14:05;22.50;47.90
67870;DHT22;54673;52.262;6.830;2023-05-15T06:16:32;22.50;47.80
67870;DHT22;54673;52.262;6.830;2023-05-15T06:18:58;22.50;47.90
67870;DHT22;54673;52.262;6.830;2023-05-15T06:21:23;22.50;47.90
67870;DHT22;54673;52.262;6.830;2023-05-15T06:23:49;22.50;47.90
67870;DHT22;54673;52.262;6.830;2023-05-15T06:26:15;22.50;47.90
67870;DHT22;54673;52.262;6.830;2023-05-15T06:28:40;22.50;47.90
67870;DHT22;54673;52.262;6.830;2023-05-15T06:31:06;22.60;48.00
67870;DHT22;54673;52.262;6.830;2023-05-15T06:33:31;22.50;47.90
67870;DHT22;54673;52.262;6.830;2023-05-15T06:35:57;22.60;47.90
67870;DHT22;54673;52.262;6.830;2023-05-15T06:38:22;22.50;47.80
67870;DHT22;54673;52.262;6.830;2023-05-15T06:40:48;22.60;48.60
67870;DHT22;54673;52.262;6.830;2023-05-15T06:43:13;22.60;47.80
67870;DHT22;54673;52.262;6.830;2023-05-15T06:45:39;22.60;47.70
67870;DHT22;54673;52.262;6.830;2023-05-15T06:48:05;22.60;47.70
67870;DHT22;54673;52.262;6.830;2023-05-15T06:50:30;22.60;47.70
67870;DHT22;54673;52.262;6.830;2023-05-15T06:52:57;22.60;47.60
67870;DHT22;54673;52.262;6.830;2023-05-15T06:55:22;22.60;47.60
67870;DHT22;54673;52.262;6.830;2023-05-15T06:57:48;22.60;47.70
67870;DHT22;54673;52.262;6.830;2023-05-15T07:00:14;22.60;47.70
67870;DHT22;54673;52.262;6.830;2023-05-15T07:02:39;22.60;47.60
67870;DHT22;54673;52.262;6.830;2023-05-15T07:05:05;22.60;47.60
67870;DHT22;54673;52.262;6.830;2023-05-15T07:07:31;22.50;47.70
67870;DHT22;54673;52.262;6.830;2023-05-15T07:09:57;22.50;47.70
67870;DHT22;54673;52.262;6.830;2023-05-15T07:12:22;22.50;47.80
67870;DHT22;54673;52.262;6.830;2023-05-15T07:14:48;22.50;47.80
67870;DHT22;54673;52.262;6.830;2023-05-15T07:17:13;22.50;47.60
67870;DHT22;54673;52.262;6.830;2023-05-15T07:19:39;22.50;47.60
67870;DHT22;54673;52.262;6.830;2023-05-15T07:22:04;22.50;47.30
67870;DHT22;54673;52.262;6.830;2023-05-15T07:24:30;22.50;47.30
67870;DHT22;54673;52.262;6.830;2023-05-15T07:26:55;22.50;47.10
67870;DHT22;54673;52.262;6.830;2023-05-15T07:29:21;22.50;46.90
67870;DHT22;54673;52.262;6.830;2023-05-15T07:31:47;22.50;46.80
67870;DHT22;54673;52.262;6.830;2023-05-15T07:34:12;22.50;46.70
67870;DHT22;54673;52.262;6.830;2023-05-15T07:36:38;22.50;46.40
67870;DHT22;54673;52.262;6.830;2023-05-15T07:39:04;22.50;46.30
67870;DHT22;54673;52.262;6.830;2023-05-15T07:41:29;22.60;46.30
67870;DHT22;54673;52.262;6.830;2023-05-15T07:43:57;22.60;46.30
67870;DHT22;54673;52.262;6.830;2023-05-15T07:46:23;22.60;46.30
67870;DHT22;54673;52.262;6.830;2023-05-15T07:48:48;22.60;46.10
67870;DHT22;54673;52.262;6.830;2023-05-15T07:51:14;22.60;46.10
67870;DHT22;54673;52.262;6.830;2023-05-15T07:53:40;22.60;46.00
67870;DHT22;54673;52.262;6.830;2023-05-15T07:56:05;22.60;45.80
67870;DHT22;54673;52.262;6.830;2023-05-15T07:58:31;22.60;45.60
67870;DHT22;54673;52.262;6.830;2023-05-15T08:00:59;22.60;45.70
67870;DHT22;54673;52.262;6.830;2023-05-15T08:03:25;22.50;45.60
67870;DHT22;54673;52.262;6.830;2023-05-15T08:05:50;22.60;45.70
67870;DHT22;54673;52.262;6.830;2023-05-15T08:08:16;22.60;45.70
67870;DHT22;54673;52.262;6.830;2023-05-15T08:10:41;22.60;45.60
67870;DHT22;54673;52.262;6.830;2023-05-15T08:13:07;22.60;45.70
67870;DHT22;54673;52.262;6.830;2023-05-15T08:15:32;22.60;45.70
67870;DHT22;54673;52.262;6.830;2023-05-15T08:17:58;22.60;45.80
67870;DHT22;54673;52.262;6.830;2023-05-15T08:20:23;22.60;45.70
67870;DHT22;54673;52.262;6.830;2023-05-15T08:22:49;22.60;45.80
67870;DHT22;54673;52.262;6.830;2023-05-15T08:25:15;22.60;45.60
67870;DHT22;54673;52.262;6.830;2023-05-15T08:27:40;22.60;45.70
67870;DHT22;54673;52.262;6.830;2023-05-15T08:30:06;22.60;45.80
67870;DHT22;54673;52.262;6.830;2023-05-15T08:32:32;22.60;45.90
67870;DHT22;54673;52.262;6.830;2023-05-15T08:34:58;22.60;45.80
67870;DHT22;54673;52.262;6.830;2023-05-15T08:37:24;22.60;45.90
67870;DHT22;54673;52.262;6.830;2023-05-15T08:39:49;22.60;46.00
67870;DHT22;54673;52.262;6.830;2023-05-15T08:42:26;22.60;46.00
67870;DHT22;54673;52.262;6.830;2023-05-15T08:44:54;22.60;46.10
67870;DHT22;54673;52.262;6.830;2023-05-15T08:47:20;22.60;46.10
67870;DHT22;54673;52.262;6.830;2023-05-15T08:50:04;22.60;46.20
67870;DHT22;54673;52.262;6.830;2023-05-15T08:52:32;22.60;46.20
67870;DHT22;54673;52.262;6.830;2023-05-15T08:54:58;22.60;46.20
67870;DHT22;54673;52.262;6.830;2023-05-15T08:57:25;22.60;46.20
67870;DHT22;54673;52.262;6.830;2023-05-15T08:59:53;22.60;46.30
67870;DHT22;54673;52.262;6.830;2023-05-15T09:02:19;22.60;46.20
67870;DHT22;54673;52.262;6.830;2023-05-15T09:04:45;22.60;46.20
67870;DHT22;54673;52.262;6.830;2023-05-15T09:07:12;22.60;46.30
67870;DHT22;54673;52.262;6.830;2023-05-15T09:09:38;22.60;46.30
67870;DHT22;54673;52.262;6.830;2023-05-15T09:12:06;22.60;46.30
67870;DHT22;54673;52.262;6.830;2023-05-15T09:14:35;22.60;46.40
67870;DHT22;54673;52.262;6.830;2023-05-15T09:17:00;22.60;46.30
67870;DHT22;54673;52.262;6.830;2023-05-15T09:19:26;22.60;46.40
67870;DHT22;54673;52.262;6.830;2023-05-15T09:21:52;22.60;46.40
67870;DHT22;54673;52.262;6.830;2023-05-15T09:24:23;22.60;46.40
67870;DHT22;54673;52.262;6.830;2023-05-15T09:27:03;22.60;46.40
67870;DHT22;54673;52.262;6.830;2023-05-15T09:29:30;22.70;46.50
67870;DHT22;54673;52.262;6.830;2023-05-15T09:31:56;22.70;46.50
67870;DHT22;54673;52.262;6.830;2023-05-15T09:34:30;22.70;46.50
67870;DHT22;54673;52.262;6.830;2023-05-15T09:36:56;22.70;46.50
67870;DHT22;54673;52.262;6.830;2023-05-15T09:39:22;22.70;46.60
67870;DHT22;54673;52.262;6.830;2023-05-15T09:41:48;22.70;46.50
67870;DHT22;54673;52.262;6.830;2023-05-15T09:44:24;22.70;46.60
67870;DHT22;54673;52.262;6.830;2023-05-15T09:46:50;22.70;46.60
67870;DHT22;54673;52.262;6.830;2023-05-15T09:49:19;22.60;46.60
67870;DHT22;54673;52.262;6.830;2023-05-15T09:51:46;22.70;46.80
67870;DHT22;54673;52.262;6.830;2023-05-15T09:54:17;22.70;46.70
67870;DHT22;54673;52.262;6.830;2023-05-15T09:56:46;22.60;46.70
67870;DHT22;54673;52.262;6.830;2023-05-15T09:59:17;22.70;46.70
67870;DHT22;54673;52.262;6.830;2023-05-15T10:01:48;22.70;46.70
67870;DHT22;54673;52.262;6.830;2023-05-15T10:04:14;22.70;46.80
67870;DHT22;54673;52.262;6.830;2023-05-15T10:06:46;22.70;46.70
67870;DHT22;54673;52.262;6.830;2023-05-15T10:09:12;22.70;46.80
67870;DHT22;54673;52.262;6.830;2023-05-15T10:11:42;22.70;46.70
67870;DHT22;54673;52.262;6.830;2023-05-15T10:14:10;22.70;47.00
67870;DHT22;54673;52.262;6.830;2023-05-15T10:16:37;22.70;46.90
67870;DHT22;54673;52.262;6.830;2023-05-15T10:19:07;22.80;47.00
67870;DHT22;54673;52.262;6.830;2023-05-15T10:21:35;22.80;46.90
67870;DHT22;54673;52.262;6.830;2023-05-15T10:24:02;22.80;46.90
67870;DHT22;54673;52.262;6.830;2023-05-15T10:26:34;22.70;46.90
67870;DHT22;54673;52.262;6.830;2023-05-15T10:29:01;22.80;46.90
67870;DHT22;54673;52.262;6.830;2023-05-15T10:31:29;22.80;47.00
67870;DHT22;54673;52.262;6.830;2023-05-15T10:33:55;22.80;46.90
67870;DHT22;54673;52.262;6.830;2023-05-15T10:36:21;22.80;46.90
67870;DHT22;54673;52.262;6.830;2023-05-15T10:38:48;22.80;46.80
67870;DHT22;54673;52.262;6.830;2023-05-15T10:41:16;22.90;46.90
67870;DHT22;54673;52.262;6.830;2023-05-15T10:43:42;22.90;46.80
67870;DHT22;54673;52.262;6.830;2023-05-15T10:46:09;22.90;46.80
67870;DHT22;54673;52.262;6.830;2023-05-15T10:48:35;22.90;46.80
67870;DHT22;54673;52.262;6.830;2023-05-15T10:51:01;22.90;46.80
67870;DHT22;54673;52.262;6.830;2023-05-15T10:53:27;22.90;46.90
67870;DHT22;54673;52.262;6.830;2023-05-15T10:55:52;22.90;46.80
67870;DHT22;54673;52.262;6.830;2023-05-15T10:58:22;23.00;46.90
67870;DHT22;54673;52.262;6.830;2023-05-15T11:00:48;23.00;46.90
67870;DHT22;54673;52.262;6.830;2023-05-15T11:03:14;23.00;46.90
67870;DHT22;54673;52.262;6.830;2023-05-15T11:06:09;23.00;46.90
67870;DHT22;54673;52.262;6.830;2023-05-15T11:08:39;23.00;46.90
67870;DHT22;54673;52.262;6.830;2023-05-15T11:11:06;23.00;46.90
67870;DHT22;54673;52.262;6.830;2023-05-15T11:22:16;23.10;47.10
67870;DHT22;54673;52.262;6.830;2023-05-15T11:27:28;23.00;47.10
67870;DHT22;54673;52.262;6.830;2023-05-15T11:30:07;23.00;47.10
67870;DHT22;54673;52.262;6.830;2023-05-15T11:32:59;23.00;47.10
67870;DHT22;54673;52.262;6.830;2023-05-15T11:35:42;23.10;47.10
67870;DHT22;54673;52.262;6.830;2023-05-15T11:43:27;23.10;47.20
67870;DHT22;54673;52.262;6.830;2023-05-15T11:48:21;23.10;47.20
67870;DHT22;54673;52.262;6.830;2023-05-15T11:50:47;23.10;47.20
67870;DHT22;54673;52.262;6.830;2023-05-15T11:53:13;23.10;47.20
67870;DHT22;54673;52.262;6.830;2023-05-15T11:55:43;23.10;47.10
67870;DHT22;54673;52.262;6.830;2023-05-15T11:58:17;23.10;47.10
67870;DHT22;54673;52.262;6.830;2023-05-15T12:00:44;23.10;48.00
67870;DHT22;54673;52.262;6.830;2023-05-15T12:03:24;23.10;47.10
67870;DHT22;54673;52.262;6.830;2023-05-15T12:05:51;23.10;47.00
67870;DHT22;54673;52.262;6.830;2023-05-15T12:08:20;23.10;47.10
67870;DHT22;54673;52.262;6.830;2023-05-15T12:10:46;23.20;47.10
67870;DHT22;54673;52.262;6.830;2023-05-15T12:13:13;23.20;47.20
67870;DHT22;54673;52.262;6.830;2023-05-15T12:15:41;23.20;47.20
67870;DHT22;54673;52.262;6.830;2023-05-15T12:18:07;23.20;47.20
67870;DHT22;54673;52.262;6.830;2023-05-15T12:20:37;23.30;47.30
67870;DHT22;54673;52.262;6.830;2023-05-15T12:23:05;23.30;47.30
67870;DHT22;54673;52.262;6.830;2023-05-15T12:25:33;23.30;47.30
67870;DHT22;54673;52.262;6.830;2023-05-15T12:28:01;23.40;47.40
67870;DHT22;54673;52.262;6.830;2023-05-15T12:30:29;23.40;47.30
67870;DHT22;54673;52.262;6.830;2023-05-15T12:33:06;23.40;47.20
67870;DHT22;54673;52.262;6.830;2023-05-15T12:35:34;23.40;47.30
67870;DHT22;54673;52.262;6.830;2023-05-15T12:38:04;23.50;47.30
67870;DHT22;54673;52.262;6.830;2023-05-15T12:40:33;23.50;47.30
67870;DHT22;54673;52.262;6.830;2023-05-15T12:43:06;23.50;47.30
67870;DHT22;54673;52.262;6.830;2023-05-15T12:45:32;23.50;47.20
67870;DHT22;54673;52.262;6.830;2023-05-15T12:48:02;23.50;47.20
67870;DHT22;54673;52.262;6.830;2023-05-15T12:50:30;23.50;47.10
67870;DHT22;54673;52.262;6.830;2023-05-15T12:52:57;23.60;47.20
67870;DHT22;54673;52.262;6.830;2023-05-15T12:55:34;23.60;47.10
67870;DHT22;54673;52.262;6.830;2023-05-15T12:58:09;23.60;47.10
67870;DHT22;54673;52.262;6.830;2023-05-15T13:00:36;23.70;47.10
67870;DHT22;54673;52.262;6.830;2023-05-15T13:03:03;23.70;47.10
67870;DHT22;54673;52.262;6.830;2023-05-15T13:05:33;23.70;47.10
67870;DHT22;54673;52.262;6.830;2023-05-15T13:08:00;23.70;47.10
67870;DHT22;54673;52.262;6.830;2023-05-15T13:10:27;23.80;47.10
67870;DHT22;54673;52.262;6.830;2023-05-15T13:12:54;23.80;47.10
67870;DHT22;54673;52.262;6.830;2023-05-15T13:17:47;23.80;47.10
67870;DHT22;54673;52.262;6.830;2023-05-15T13:20:12;23.80;47.00
67870;DHT22;54673;52.262;6.830;2023-05-15T13:22:38;23.80;47.00
67870;DHT22;54673;52.262;6.830;2023-05-15T13:25:04;23.90;47.00
67870;DHT22;54673;52.262;6.830;2023-05-15T13:27:30;23.90;47.00
67870;DHT22;54673;52.262;6.830;2023-05-15T13:29:55;23.90;47.00
67870;DHT22;54673;52.262;6.830;2023-05-15T13:32:21;23.90;47.00
67870;DHT22;54673;52.262;6.830;2023-05-15T13:34:46;24.00;47.00
67870;DHT22;54673;52.262;6.830;2023-05-15T13:37:13;24.00;47.00
67870;DHT22;54673;52.262;6.830;2023-05-15T13:39:38;24.00;47.00
67870;DHT22;54673;52.262;6.830;2023-05-15T13:42:04;24.00;47.00
67870;DHT22;54673;52.262;6.830;2023-05-15T13:44:30;24.10;46.90
67870;DHT22;54673;52.262;6.830;2023-05-15T13:46:56;24.00;46.90
67870;DHT22;54673;52.262;6.830;2023-05-15T13:49:22;24.10;46.90
67870;DHT22;54673;52.262;6.830;2023-05-15T13:51:48;24.10;46.80
67870;DHT22;54673;52.262;6.830;2023-05-15T13:54:14;24.10;46.80
67870;DHT22;54673;52.262;6.830;2023-05-15T13:56:39;24.20;46.80
67870;DHT22;54673;52.262;6.830;2023-05-15T13:59:05;24.20;46.70
67870;DHT22;54673;52.262;6.830;2023-05-15T14:01:31;24.20;46.50
67870;DHT22;54673;52.262;6.830;2023-05-15T14:03:56;24.20;46.50
67870;DHT22;54673;52.262;6.830;2023-05-15T14:06:22;24.20;46.40
67870;DHT22;54673;52.262;6.830;2023-05-15T14:08:47;24.20;46.40
67870;DHT22;54673;52.262;6.830;2023-05-15T14:11:13;24.30;46.40
67870;DHT22;54673;52.262;6.830;2023-05-15T14:13:38;24.20;46.20
67870;DHT22;54673;52.262;6.830;2023-05-15T14:16:04;24.30;46.30
67870;DHT22;54673;52.262;6.830;2023-05-15T14:18:30;24.30;46.40
67870;DHT22;54673;52.262;6.830;2023-05-15T14:20:56;24.30;46.20
67870;DHT22;54673;52.262;6.830;2023-05-15T14:23:21;24.30;46.30
67870;DHT22;54673;52.262;6.830;2023-05-15T14:25:47;24.40;46.40
67870;DHT22;54673;52.262;6.830;2023-05-15T14:28:12;24.40;46.30
67870;DHT22;54673;52.262;6.830;2023-05-15T14:30:38;24.40;46.30
67870;DHT22;54673;52.262;6.830;2023-05-15T14:33:03;24.40;46.30
67870;DHT22;54673;52.262;6.830;2023-05-15T14:35:29;24.40;46.30
67870;DHT22;54673;52.262;6.830;2023-05-15T14:37:54;24.40;46.30
67870;DHT22;54673;52.262;6.830;2023-05-15T14:40:20;24.40;46.30
67870;DHT22;54673;52.262;6.830;2023-05-15T14:42:46;24.40;46.20
67870;DHT22;54673;52.262;6.830;2023-05-15T14:45:11;24.40;46.10
67870;DHT22;54673;52.262;6.830;2023-05-15T14:47:37;24.50;46.10
67870;DHT22;54673;52.262;6.830;2023-05-15T14:50:04;24.40;46.10
67870;DHT22;54673;52.262;6.830;2023-05-15T14:52:29;24.50;46.10
67870;DHT22;54673;52.262;6.830;2023-05-15T14:54:55;24.50;46.10
67870;DHT22;54673;52.262;6.830;2023-05-15T14:57:20;24.50;46.10
67870;DHT22;54673;52.262;6.830;2023-05-15T14:59:46;24.50;46.20
67870;DHT22;54673;52.262;6.830;2023-05-15T15:02:11;24.50;46.10
67870;DHT22;54673;52.262;6.830;2023-05-15T15:04:37;24.50;46.10
67870;DHT22;54673;52.262;6.830;2023-05-15T15:07:03;24.50;46.20
67870;DHT22;54673;52.262;6.830;2023-05-15T15:09:29;24.50;46.20
67870;DHT22;54673;52.262;6.830;2023-05-15T15:11:54;24.40;46.10
67870;DHT22;54673;52.262;6.830;2023-05-15T15:14:20;24.40;46.10
67870;DHT22;54673;52.262;6.830;2023-05-15T15:16:45;24.40;46.20
67870;DHT22;54673;52.262;6.830;2023-05-15T15:19:12;24.40;46.30
67870;DHT22;54673;52.262;6.830;2023-05-15T15:21:38;24.40;46.30
67870;DHT22;54673;52.262;6.830;2023-05-15T15:24:03;24.40;46.40
67870;DHT22;54673;52.262;6.830;2023-05-15T15:26:29;24.30;46.30
67870;DHT22;54673;52.262;6.830;2023-05-15T15:28:54;24.30;46.40
67870;DHT22;54673;52.262;6.830;2023-05-15T15:31:26;24.30;46.40
67870;DHT22;54673;52.262;6.830;2023-05-15T15:33:51;24.30;46.50
67870;DHT22;54673;52.262;6.830;2023-05-15T15:36:17;24.30;45.70
67870;DHT22;54673;52.262;6.830;2023-05-15T15:38:43;24.20;46.40
67870;DHT22;54673;52.262;6.830;2023-05-15T15:41:08;24.20;46.40
67870;DHT22;54673;52.262;6.830;2023-05-15T15:43:34;24.20;46.20
67870;DHT22;54673;52.262;6.830;2023-05-15T15:45:59;24.20;46.30
67870;DHT22;54673;52.262;6.830;2023-05-15T15:48:25;24.20;46.30
67870;DHT22;54673;52.262;6.830;2023-05-15T15:50:50;24.10;46.20
67870;DHT22;54673;52.262;6.830;2023-05-15T15:53:16;24.20;46.30
67870;DHT22;54673;52.262;6.830;2023-05-15T15:55:42;24.10;46.20
67870;DHT22;54673;52.262;6.830;2023-05-15T15:58:07;24.10;46.00